createdAt,value
2023-02-26T00:02:21.899Z,97738.00
2023-02-26T00:04:55.182Z,97739.91
2023-02-26T00:07:29.273Z,97743.56
2023-02-26T00:10:03.164Z,97742.75
2023-02-26T00:12:36.321Z,97738.03
2023-02-26T00:15:13.492Z,97747.81
2023-02-26T00:18:14.221Z,97747.75
2023-02-26T00:20:46.912Z,97752.84
2023-02-26T00:23:22.543Z,97753.34
2023-02-26T00:25:54.822Z,97754.50
2023-02-26T00:28:27.189Z,97755.09
2023-02-26T00:31:00.253Z,97756.16
2023-02-26T00:33:33.364Z,97762.59
2023-02-26T00:36:26.288Z,97766.47
2023-02-26T00:39:47.037Z,97751.97
2023-02-26T00:42:20.759Z,97760.16
2023-02-26T00:44:53.246Z,97754.94
2023-02-26T00:47:54.529Z,97758.75
2023-02-26T00:50:28.158Z,97762.50
2023-02-26T00:53:22.683Z,97765.66
2023-02-26T00:55:54.949Z,97763.47
2023-02-26T00:58:27.327Z,97771.69
2023-02-26T01:01:00.746Z,97770.63
2023-02-26T01:03:34.741Z,97780.06
2023-02-26T01:06:13.412Z,97783.47
2023-02-26T01:09:35.051Z,97784.16
2023-02-26T01:12:13.294Z,97781.88
2023-02-26T01:14:47.405Z,97785.09
2023-02-26T01:17:34.502Z,97784.72
2023-02-26T01:20:22.340Z,97778.00
2023-02-26T01:22:59.485Z,97781.19
2023-02-26T01:25:55.454Z,97774.66
2023-02-26T01:28:27.918Z,97778.13
2023-02-26T01:31:06.132Z,97772.19
2023-02-26T01:33:56.609Z,97783.47
2023-02-26T01:36:38.208Z,97772.75
2023-02-26T01:39:29.245Z,97777.63
2023-02-26T01:42:24.259Z,97778.16
2023-02-26T01:45:11.735Z,97783.63
2023-02-26T01:48:06.016Z,97782.81
2023-02-26T01:50:39.686Z,97778.53
2023-02-26T01:53:21.183Z,97776.38
2023-02-26T01:55:59.046Z,97785.13
2023-02-26T01:58:35.084Z,97779.84
2023-02-26T02:01:08.024Z,97774.13
2023-02-26T02:03:42.835Z,97779.13
2023-02-26T02:06:21.320Z,97779.78
2023-02-26T02:08:54.254Z,97773.94
2023-02-26T02:11:28.008Z,97776.88
2023-02-26T02:15:08.738Z,97777.94
2023-02-26T02:18:04.916Z,97775.94
2023-02-26T02:20:58.272Z,97773.09
2023-02-26T02:23:57.669Z,97779.19
2023-02-26T02:27:08.675Z,97782.66
2023-02-26T02:30:02.559Z,97785.78
2023-02-26T02:32:51.305Z,97787.84
2023-02-26T02:35:34.805Z,97790.31
2023-02-26T02:38:19.195Z,97787.47
2023-02-26T02:41:06.678Z,97784.16
2023-02-26T02:43:42.090Z,97794.69
2023-02-26T02:46:29.243Z,97797.72
2023-02-26T02:49:14.481Z,97789.78
2023-02-26T02:52:04.090Z,97794.97
2023-02-26T02:54:49.263Z,97800.69
2023-02-26T02:57:27.283Z,97795.78
2023-02-26T03:00:06.486Z,97792.38
2023-02-26T03:03:11.893Z,97800.16
2023-02-26T03:05:44.992Z,97800.91
2023-02-26T03:08:29.528Z,97800.97
2023-02-26T03:11:02.281Z,97797.41
2023-02-26T03:13:35.236Z,97807.84
2023-02-26T03:16:42.013Z,97807.50
2023-02-26T03:19:31.345Z,97813.09
2023-02-26T03:22:08.844Z,97812.22
2023-02-26T03:25:17.795Z,97809.34
2023-02-26T03:27:53.434Z,97822.91
2023-02-26T03:30:44.490Z,97820.88
2023-02-26T03:33:34.466Z,97826.00
2023-02-26T03:36:23.545Z,97832.00
2023-02-26T03:39:16.802Z,97838.78
2023-02-26T03:42:06.473Z,97837.03
2023-02-26T03:44:59.052Z,97824.41
2023-02-26T03:47:33.659Z,97835.25
2023-02-26T03:50:20.351Z,97829.25
2023-02-26T03:53:12.135Z,97838.63
2023-02-26T03:56:34.225Z,97838.94
2023-02-26T03:59:44.934Z,97836.00
2023-02-26T04:02:56.661Z,97843.41
2023-02-26T04:05:37.558Z,97850.75
2023-02-26T04:08:09.533Z,97841.94
2023-02-26T04:10:48.351Z,97853.13
2023-02-26T04:13:20.933Z,97853.72
2023-02-26T04:15:54.990Z,97854.81
2023-02-26T04:18:27.789Z,97852.94
2023-02-26T04:21:01.602Z,97859.72
2023-02-26T04:23:34.536Z,97855.28
2023-02-26T04:26:07.633Z,97854.69
2023-02-26T04:28:42.331Z,97853.69
2023-02-26T04:31:16.039Z,97849.84
2023-02-26T04:33:49.200Z,97858.72
2023-02-26T04:36:22.124Z,97843.09
2023-02-26T04:38:54.943Z,97865.31
2023-02-26T04:41:27.742Z,97849.78
2023-02-26T04:44:00.235Z,97860.16
2023-02-26T04:46:35.729Z,97856.13
2023-02-26T04:49:07.779Z,97863.59
2023-02-26T04:51:41.923Z,97857.66
2023-02-26T04:54:14.320Z,97863.16
2023-02-26T04:56:46.978Z,97845.69
2023-02-26T04:59:18.861Z,97849.88
2023-02-26T05:01:51.985Z,97846.13
2023-02-26T05:04:24.520Z,97848.63
2023-02-26T05:06:59.623Z,97848.47
2023-02-26T05:09:32.538Z,97852.69
2023-02-26T05:12:05.445Z,97850.81
2023-02-26T05:14:38.526Z,97850.41
2023-02-26T05:17:10.664Z,97848.72
2023-02-26T05:19:43.846Z,97849.88
2023-02-26T05:22:15.741Z,97857.88
2023-02-26T05:24:48.667Z,97860.41
2023-02-26T05:27:20.548Z,97854.88
2023-02-26T05:29:53.605Z,97863.34
2023-02-26T05:32:28.873Z,97870.28
2023-02-26T05:35:02.705Z,97867.66
2023-02-26T05:37:35.838Z,97867.88
2023-02-26T05:40:11.255Z,97871.81
2023-02-26T05:42:43.649Z,97873.59
2023-02-26T05:45:16.406Z,97879.00
2023-02-26T05:47:48.300Z,97880.72
2023-02-26T05:50:21.059Z,97886.19
2023-02-26T05:52:52.903Z,97888.69
2023-02-26T05:55:25.686Z,97889.22
2023-02-26T05:57:57.574Z,97890.28
2023-02-26T06:00:30.405Z,97896.22
2023-02-26T06:03:02.858Z,97887.69
2023-02-26T06:05:36.223Z,97895.38
2023-02-26T06:08:09.370Z,97900.66
2023-02-26T06:10:41.683Z,97900.56
2023-02-26T06:13:14.781Z,97903.59
2023-02-26T06:15:50.395Z,97911.44
2023-02-26T06:18:23.165Z,97914.50
2023-02-26T06:20:55.504Z,97916.78
2023-02-26T06:23:28.476Z,97923.44
2023-02-26T06:26:04.411Z,97931.47
2023-02-26T06:28:36.771Z,97932.31
2023-02-26T06:31:08.637Z,97934.31
2023-02-26T06:33:41.316Z,97939.16
2023-02-26T06:36:13.575Z,97945.78
2023-02-26T06:38:46.273Z,97937.94
2023-02-26T06:41:18.193Z,97931.59
2023-02-26T06:43:50.914Z,97934.09
2023-02-26T06:46:24.157Z,97938.19
2023-02-26T06:48:56.254Z,97936.84
2023-02-26T06:51:29.647Z,97944.38
2023-02-26T06:54:02.020Z,97948.97
2023-02-26T06:56:34.834Z,97944.38
2023-02-26T06:59:07.175Z,97947.97
2023-02-26T07:01:40.160Z,97958.91
2023-02-26T07:04:12.462Z,97965.34
2023-02-26T07:06:45.154Z,97960.34
2023-02-26T07:09:20.204Z,97969.09
2023-02-26T07:11:52.244Z,97967.78
2023-02-26T07:14:25.037Z,97976.88
2023-02-26T07:16:56.949Z,97978.09
2023-02-26T07:19:29.699Z,97977.19
2023-02-26T07:22:01.915Z,97969.44
2023-02-26T07:24:34.763Z,97977.03
2023-02-26T07:27:06.643Z,97976.09
2023-02-26T07:29:39.754Z,97978.22
2023-02-26T07:32:13.041Z,97992.78
2023-02-26T07:34:44.931Z,97987.94
2023-02-26T07:37:17.993Z,97997.22
2023-02-26T07:39:49.982Z,98000.50
2023-02-26T07:42:23.023Z,97998.47
2023-02-26T07:44:57.802Z,97993.53
2023-02-26T07:47:30.917Z,97997.50
2023-02-26T07:50:04.132Z,97992.69
2023-02-26T07:52:36.104Z,97990.97
2023-02-26T07:55:12.206Z,97989.91
2023-02-26T07:57:44.862Z,97986.94
2023-02-26T08:00:17.663Z,97993.47
2023-02-26T08:02:50.838Z,97988.97
2023-02-26T08:05:22.696Z,97990.44
2023-02-26T08:07:55.389Z,97992.75
2023-02-26T08:10:27.673Z,97992.44
2023-02-26T08:12:59.959Z,97988.78
2023-02-26T08:15:35.454Z,97991.69
2023-02-26T08:18:07.928Z,97992.56
2023-02-26T08:20:39.827Z,97990.34
2023-02-26T08:23:15.079Z,98002.94
2023-02-26T08:25:47.006Z,97990.50
2023-02-26T08:28:20.047Z,97993.47
2023-02-26T08:30:56.377Z,97994.59
2023-02-26T08:33:29.266Z,97993.41
2023-02-26T08:36:02.612Z,97991.84
2023-02-26T08:38:34.813Z,97980.81
2023-02-26T08:41:08.691Z,97989.59
2023-02-26T08:43:42.153Z,97990.34
2023-02-26T08:46:14.549Z,97994.66
2023-02-26T08:48:47.825Z,97990.09
2023-02-26T08:51:23.844Z,98003.41
2023-02-26T08:53:57.940Z,98001.19
2023-02-26T08:56:31.722Z,98001.34
2023-02-26T08:59:04.388Z,98004.75
2023-02-26T09:01:36.859Z,98002.91
2023-02-26T09:04:08.849Z,98008.44
2023-02-26T09:06:41.151Z,98011.72
2023-02-26T09:09:13.119Z,98021.66
2023-02-26T09:11:48.888Z,98017.88
2023-02-26T09:14:20.834Z,98010.25
2023-02-26T09:16:53.963Z,98008.25
2023-02-26T09:19:25.893Z,98013.50
2023-02-26T09:21:59.910Z,98013.53
2023-02-26T09:24:32.309Z,97996.78
2023-02-26T09:27:05.977Z,98008.53
2023-02-26T09:29:38.084Z,98010.88
2023-02-26T09:32:11.359Z,98009.47
2023-02-26T09:34:43.281Z,98002.56
2023-02-26T09:37:18.729Z,98021.00
2023-02-26T09:39:53.266Z,98009.47
2023-02-26T09:42:45.312Z,98005.75
2023-02-26T09:45:38.275Z,98003.44
2023-02-26T09:48:15.583Z,98008.09
2023-02-26T09:50:56.908Z,98013.63
2023-02-26T09:53:38.522Z,98027.94
2023-02-26T09:56:22.928Z,98014.69
2023-02-26T09:58:55.596Z,98020.19
2023-02-26T10:01:45.445Z,98020.84
2023-02-26T10:04:32.856Z,98028.09
2023-02-26T10:07:44.392Z,98027.78
2023-02-26T10:10:33.897Z,98032.34
2023-02-26T10:13:06.309Z,98026.84
2023-02-26T10:15:42.493Z,98036.09
2023-02-26T10:21:24.927Z,98044.34
2023-02-26T10:24:09.133Z,98050.19
2023-02-26T10:27:15.036Z,98054.25
2023-02-26T10:30:04.899Z,98050.94
2023-02-26T10:32:54.736Z,98048.56
2023-02-26T10:35:35.322Z,98051.38
2023-02-26T10:38:15.222Z,98041.56
2023-02-26T10:40:59.955Z,98058.53
2023-02-26T10:43:42.301Z,98055.19
2023-02-26T10:46:42.466Z,98061.81
2023-02-26T10:49:31.896Z,98067.91
2023-02-26T10:52:21.281Z,98064.28
2023-02-26T10:55:43.346Z,98065.16
2023-02-26T10:58:21.896Z,98050.84
2023-02-26T11:03:57.015Z,98051.84
2023-02-26T11:06:38.675Z,98052.44
2023-02-26T11:09:27.534Z,98062.66
2023-02-26T11:12:13.133Z,98057.78
2023-02-26T11:14:51.708Z,98047.72
2023-02-26T11:17:29.905Z,98048.38
2023-02-26T11:20:25.154Z,98053.06
2023-02-26T11:23:01.107Z,98059.34
2023-02-26T11:25:36.091Z,98071.34
2023-02-26T11:28:27.014Z,98077.63
2023-02-26T11:31:09.931Z,98071.88
2023-02-26T11:34:13.161Z,98077.41
2023-02-26T11:36:45.709Z,98075.16
2023-02-26T11:42:27.335Z,98077.41
2023-02-26T11:44:59.902Z,98072.16
2023-02-26T11:47:37.545Z,98065.31
2023-02-26T11:50:22.946Z,98061.34
2023-02-26T11:53:05.949Z,98051.19
2023-02-26T11:55:48.384Z,98052.13
2023-02-26T11:58:24.317Z,98058.69
2023-02-26T12:00:59.921Z,98054.25
2023-02-26T12:06:35.756Z,98059.25
2023-02-26T12:09:30.416Z,98060.75
2023-02-26T12:12:31.022Z,98059.00
2023-02-26T12:15:36.779Z,98051.88
2023-02-26T12:18:32.584Z,98053.69
2023-02-26T12:21:38.680Z,98049.47
2023-02-26T12:24:47.797Z,98051.13
2023-02-26T12:28:16.668Z,98048.72
2023-02-26T12:31:27.711Z,98033.19
2023-02-26T12:34:28.956Z,98048.75
2023-02-26T12:37:25.455Z,98050.00
2023-02-26T12:40:46.922Z,98040.28
2023-02-26T12:43:51.567Z,98041.50
2023-02-26T12:46:33.384Z,98044.28
2023-02-26T12:49:50.639Z,98050.16
2023-02-26T12:52:50.478Z,98056.19
2023-02-26T12:55:40.429Z,98060.06
2023-02-26T12:58:42.789Z,98061.34
2023-02-26T13:01:55.990Z,98055.41
2023-02-26T13:04:52.967Z,98065.88
2023-02-26T13:08:20.983Z,98065.00
2023-02-26T13:11:32.486Z,98059.66
2023-02-26T13:15:01.421Z,98051.31
2023-02-26T13:17:56.562Z,98056.56
2023-02-26T13:20:29.919Z,98063.84
2023-02-26T13:23:12.426Z,98066.69
2023-02-26T13:25:58.622Z,98052.28
2023-02-26T13:29:04.864Z,98039.19
2023-02-26T13:31:56.048Z,98055.88
2023-02-26T13:35:09.895Z,98056.00
2023-02-26T13:37:52.394Z,98049.06
2023-02-26T13:41:14.844Z,98066.00
2023-02-26T13:44:08.154Z,98060.50
2023-02-26T13:46:52.670Z,98060.34
2023-02-26T13:50:11.598Z,98055.09
2023-02-26T13:52:57.697Z,98064.50
2023-02-26T13:55:47.004Z,98070.94
2023-02-26T13:58:22.731Z,98067.81
2023-02-26T14:01:16.613Z,98065.03
2023-02-26T14:04:11.512Z,98068.53
2023-02-26T14:06:54.437Z,98070.03
2023-02-26T14:09:29.646Z,98076.25
2023-02-26T14:12:05.301Z,98062.06
2023-02-26T14:14:41.615Z,98074.56
2023-02-26T14:17:13.631Z,98086.84
2023-02-26T14:20:26.036Z,98084.06
2023-02-26T14:23:14.641Z,98092.81
2023-02-26T14:25:53.569Z,98089.97
2023-02-26T14:28:27.129Z,98098.84
2023-02-26T14:31:19.683Z,98109.09
2023-02-26T14:34:26.549Z,98112.31
2023-02-26T14:37:07.381Z,98111.19
2023-02-26T14:40:15.927Z,98119.28
2023-02-26T14:42:57.081Z,98114.38
2023-02-26T14:45:32.549Z,98116.38
2023-02-26T14:48:14.920Z,98119.03
2023-02-26T14:51:15.118Z,98114.91
2023-02-26T14:54:38.104Z,98124.09
2023-02-26T14:57:36.064Z,98122.03
2023-02-26T15:00:25.841Z,98124.63
2023-02-26T15:03:06.464Z,98110.50
2023-02-26T15:05:56.959Z,98113.91
2023-02-26T15:08:57.636Z,98112.63
2023-02-26T15:12:10.866Z,98111.41
2023-02-26T15:15:11.268Z,98113.19
2023-02-26T15:18:04.884Z,98128.94
2023-02-26T15:21:14.668Z,98133.75
2023-02-26T15:23:53.730Z,98123.72
2023-02-26T15:26:29.857Z,98119.38
2023-02-26T15:29:07.903Z,98123.63
2023-02-26T15:31:44.045Z,98122.19
2023-02-26T15:34:16.624Z,98124.06
2023-02-26T15:36:55.040Z,98143.38
2023-02-26T15:39:27.150Z,98148.31
2023-02-26T15:41:59.859Z,98163.38
2023-02-26T15:44:33.751Z,98169.16
2023-02-26T15:47:07.174Z,98154.97
2023-02-26T15:49:46.647Z,98154.72
2023-02-26T15:52:23.598Z,98166.16
2023-02-26T15:55:00.231Z,98156.69
2023-02-26T15:57:32.395Z,98171.41
2023-02-26T16:00:17.188Z,98172.22
2023-02-26T16:02:50.192Z,98175.03
2023-02-26T16:05:22.079Z,98175.03
2023-02-26T16:07:57.199Z,98180.13
2023-02-26T16:10:40.813Z,98188.84
2023-02-26T16:13:18.432Z,98181.38
2023-02-26T16:15:50.393Z,98181.75
2023-02-26T16:18:25.145Z,98186.50
2023-02-26T16:21:00.269Z,98185.66
2023-02-26T16:23:43.066Z,98189.94
2023-02-26T16:26:22.829Z,98189.66
2023-02-26T16:29:04.183Z,98179.19
2023-02-26T16:31:37.887Z,98185.47
2023-02-26T16:34:44.058Z,98176.50
2023-02-26T16:37:36.068Z,98197.59
2023-02-26T16:40:27.045Z,98185.09
2023-02-26T16:43:24.039Z,98188.53
2023-02-26T16:46:00.747Z,98182.28
2023-02-26T16:49:03.558Z,98195.19
2023-02-26T16:51:38.616Z,98199.84
2023-02-26T16:54:40.802Z,98202.53
2023-02-26T16:57:22.863Z,98205.13
2023-02-26T17:00:00.418Z,98202.38
2023-02-26T17:02:35.232Z,98213.09
2023-02-26T17:05:31.646Z,98219.47
2023-02-26T17:08:20.319Z,98225.84
2023-02-26T17:11:02.572Z,98224.06
2023-02-26T17:13:37.460Z,98225.25
2023-02-26T17:16:14.404Z,98234.47
2023-02-26T17:18:46.453Z,98238.22
2023-02-26T17:21:19.918Z,98226.53
2023-02-26T17:23:52.277Z,98239.25
2023-02-26T17:26:25.454Z,98242.63
2023-02-26T17:28:58.071Z,98234.75
2023-02-26T17:31:30.430Z,98233.25
2023-02-26T17:34:02.846Z,98238.91
2023-02-26T17:36:37.862Z,98243.81
2023-02-26T17:39:13.355Z,98252.59
2023-02-26T17:41:46.328Z,98270.03
2023-02-26T17:44:18.605Z,98260.66
2023-02-26T17:46:51.384Z,98272.13
2023-02-26T17:49:23.277Z,98278.06
2023-02-26T17:51:56.022Z,98283.81
2023-02-26T17:54:28.809Z,98284.59
2023-02-26T17:57:01.684Z,98277.06
2023-02-26T17:59:34.306Z,98271.25
2023-02-26T18:02:27.352Z,98277.06
2023-02-26T18:04:59.269Z,98271.94
2023-02-26T18:07:32.197Z,98279.69
2023-02-26T18:10:06.214Z,98277.94
2023-02-26T18:12:38.942Z,98286.38
2023-02-26T18:15:13.671Z,98270.41
2023-02-26T18:17:46.354Z,98281.28
2023-02-26T18:20:22.909Z,98275.78
2023-02-26T18:22:55.699Z,98273.41
2023-02-26T18:25:28.335Z,98275.25
2023-02-26T18:28:02.138Z,98280.03
2023-02-26T18:30:36.514Z,98284.56
2023-02-26T18:33:09.246Z,98288.91
2023-02-26T18:35:45.839Z,98292.53
2023-02-26T18:38:22.344Z,98290.91
2023-02-26T18:40:55.351Z,98291.78
2023-02-26T18:43:30.717Z,98287.25
2023-02-26T18:46:03.082Z,98289.19
2023-02-26T18:48:36.703Z,98295.06
2023-02-26T18:51:09.658Z,98303.97
2023-02-26T18:53:41.578Z,98305.97
2023-02-26T18:56:14.683Z,98309.97
2023-02-26T18:58:46.972Z,98321.50
2023-02-26T19:01:19.802Z,98316.22
2023-02-26T19:03:51.650Z,98316.03
2023-02-26T19:06:24.406Z,98313.44
2023-02-26T19:08:57.155Z,98321.72
2023-02-26T19:11:29.929Z,98322.91
2023-02-26T19:14:03.348Z,98317.19
2023-02-26T19:16:38.188Z,98331.59
2023-02-26T19:19:12.846Z,98328.84
2023-02-26T19:21:44.835Z,98333.53
2023-02-26T19:24:17.935Z,98337.94
2023-02-26T19:26:50.186Z,98326.34
2023-02-26T19:29:22.934Z,98330.78
2023-02-26T19:31:55.332Z,98329.47
2023-02-26T19:34:28.131Z,98350.25
2023-02-26T19:37:00.015Z,98351.56
2023-02-26T19:39:34.869Z,98332.66
2023-02-26T19:42:07.325Z,98337.84
2023-02-26T19:44:39.666Z,98331.91
2023-02-26T19:47:12.007Z,98349.25
2023-02-26T19:49:43.915Z,98351.34
2023-02-26T19:52:16.567Z,98348.44
2023-02-26T19:54:48.396Z,98349.84
2023-02-26T19:57:21.679Z,98353.47
2023-02-26T19:59:54.292Z,98348.44
2023-02-26T20:02:26.872Z,98356.91
2023-02-26T20:05:20.906Z,98358.25
2023-02-26T20:07:53.244Z,98340.47
2023-02-26T20:10:45.848Z,98354.72
2023-02-26T20:13:19.619Z,98359.31
2023-02-26T20:15:53.510Z,98359.50
2023-02-26T20:18:30.806Z,98353.63
2023-02-26T20:21:08.881Z,98362.84
2023-02-26T20:23:43.058Z,98363.09
2023-02-26T20:26:16.113Z,98360.56
2023-02-26T20:28:49.150Z,98362.09
2023-02-26T20:31:21.111Z,98352.97
2023-02-26T20:33:54.644Z,98354.28
2023-02-26T20:36:27.038Z,98356.06
2023-02-26T20:38:58.995Z,98358.56
2023-02-26T20:41:31.783Z,98357.50
2023-02-26T20:44:04.045Z,98359.41
2023-02-26T20:46:39.229Z,98354.28
2023-02-26T20:49:11.656Z,98355.56
2023-02-26T20:51:44.898Z,98365.28
2023-02-26T20:54:19.798Z,98372.41
2023-02-26T20:56:52.615Z,98364.94
2023-02-26T20:59:24.525Z,98376.06
2023-02-26T21:01:57.717Z,98385.81
2023-02-26T21:04:32.958Z,98381.78
2023-02-26T21:07:21.523Z,98367.53
2023-02-26T21:09:55.810Z,98377.03
2023-02-26T21:12:29.757Z,98391.84
2023-02-26T21:15:03.057Z,98374.56
2023-02-26T21:17:35.415Z,98357.06
2023-02-26T21:20:10.734Z,98370.66
2023-02-26T21:22:43.031Z,98371.31
2023-02-26T21:25:14.985Z,98370.97
2023-02-26T21:27:47.580Z,98367.19
2023-02-26T21:30:19.924Z,98375.50
2023-02-26T21:32:53.125Z,98379.44
2023-02-26T21:35:26.383Z,98361.44
2023-02-26T21:37:58.350Z,98379.59
2023-02-26T21:40:31.771Z,98359.66
2023-02-26T21:43:04.707Z,98374.81
2023-02-26T21:45:37.584Z,98366.94
2023-02-26T21:48:10.366Z,98376.16
2023-02-26T21:50:42.880Z,98366.38
2023-02-26T21:53:15.183Z,98376.41
2023-02-26T21:55:48.126Z,98366.75
2023-02-26T21:58:20.410Z,98369.34
2023-02-26T22:00:52.587Z,98359.97
2023-02-26T22:03:25.347Z,98364.09
2023-02-26T22:05:57.759Z,98357.13
2023-02-26T22:08:29.755Z,98368.09
2023-02-26T22:11:02.774Z,98369.53
2023-02-26T22:13:34.990Z,98365.44
2023-02-26T22:16:08.734Z,98362.34
2023-02-26T22:18:59.466Z,98370.03
2023-02-26T22:21:53.135Z,98368.25
2023-02-26T22:24:25.202Z,98359.22
2023-02-26T22:26:58.001Z,98374.47
2023-02-26T22:29:29.844Z,98375.81
2023-02-26T22:32:03.060Z,98378.25
2023-02-26T22:34:36.642Z,98364.84
2023-02-26T22:37:09.400Z,98362.84
2023-02-26T22:39:42.547Z,98345.97
2023-02-26T22:42:15.290Z,98350.94
2023-02-26T22:44:47.169Z,98357.66
2023-02-26T22:47:19.909Z,98353.28
2023-02-26T22:50:11.661Z,98357.78
2023-02-26T22:53:07.320Z,98362.41
2023-02-26T22:55:39.222Z,98345.59
2023-02-26T22:58:11.923Z,98346.94
2023-02-26T23:00:44.583Z,98350.69
2023-02-26T23:03:17.738Z,98360.31
2023-02-26T23:05:49.589Z,98356.44
2023-02-26T23:08:22.251Z,98355.72
2023-02-26T23:10:59.270Z,98342.22
2023-02-26T23:13:35.347Z,98352.00
2023-02-26T23:16:10.422Z,98366.34
2023-02-26T23:18:45.419Z,98350.16
2023-02-26T23:21:18.148Z,98355.69
2023-02-26T23:23:50.416Z,98358.78
2023-02-26T23:26:22.495Z,98362.41
2023-02-26T23:31:48.394Z,98360.06
2023-02-26T23:34:21.469Z,98354.88
2023-02-26T23:36:53.309Z,98354.19
2023-02-26T23:39:28.812Z,98347.00
2023-02-26T23:42:00.793Z,98374.31
2023-02-26T23:44:33.636Z,98353.00
2023-02-26T23:47:06.524Z,98348.06
2023-02-26T23:49:39.187Z,98333.16
2023-02-26T23:52:11.068Z,98333.22
2023-02-26T23:54:44.273Z,98336.06
2023-02-26T23:57:16.929Z,98332.13
2023-02-26T23:59:49.600Z,98357.44
